sensor_id;sensor_type;location;lat;lon;timestamp;P1;durP1;ratioP1;P2;durP2;ratioP2
19919;SDS011;10122;50.074;19.920;2022-09-09T00:04:35;6.20;;;4.93;;
19919;SDS011;10122;50.074;19.920;2022-09-09T00:09:45;6.93;;;5.18;;
19919;SDS011;10122;50.074;19.920;2022-09-09T00:15:12;5.55;;;4.78;;
19919;SDS011;10122;50.074;19.920;2022-09-09T00:32:07;6.20;;;4.78;;
19919;SDS011;10122;50.074;19.920;2022-09-09T00:34:55;7.32;;;5.03;;
19919;SDS011;10122;50.074;19.920;2022-09-09T00:37:25;5.43;;;4.88;;
19919;SDS011;10122;50.074;19.920;2022-09-09T00:39:52;6.55;;;5.03;;
19919;SDS011;10122;50.074;19.920;2022-09-09T00:42:26;6.03;;;4.97;;
19919;SDS011;10122;50.074;19.920;2022-09-09T00:47:53;6.50;;;4.97;;
19919;SDS011;10122;50.074;19.920;2022-09-09T00:55:28;7.15;;;5.28;;
19919;SDS011;10122;50.074;19.920;2022-09-09T00:58:10;7.00;;;5.20;;
19919;SDS011;10122;50.074;19.920;2022-09-09T01:00:52;6.97;;;5.15;;
19919;SDS011;10122;50.074;19.920;2022-09-09T01:03:38;6.53;;;5.25;;
19919;SDS011;10122;50.074;19.920;2022-09-09T01:06:37;9.35;;;5.32;;
19919;SDS011;10122;50.074;19.920;2022-09-09T01:11:55;6.85;;;5.25;;
19919;SDS011;10122;50.074;19.920;2022-09-09T01:14:43;7.10;;;5.60;;
19919;SDS011;10122;50.074;19.920;2022-09-09T01:28:52;7.53;;;5.82;;
19919;SDS011;10122;50.074;19.920;2022-09-09T01:31:28;8.20;;;5.97;;
19919;SDS011;10122;50.074;19.920;2022-09-09T01:34:14;8.43;;;6.38;;
19919;SDS011;10122;50.074;19.920;2022-09-09T01:36:44;9.07;;;5.78;;
19919;SDS011;10122;50.074;19.920;2022-09-09T01:39:18;8.35;;;5.70;;
19919;SDS011;10122;50.074;19.920;2022-09-09T01:41:45;7.43;;;5.65;;
19919;SDS011;10122;50.074;19.920;2022-09-09T01:44:10;8.63;;;6.18;;
19919;SDS011;10122;50.074;19.920;2022-09-09T01:46:37;7.93;;;6.13;;
19919;SDS011;10122;50.074;19.920;2022-09-09T01:49:03;7.15;;;5.57;;
19919;SDS011;10122;50.074;19.920;2022-09-09T01:51:32;6.68;;;5.55;;
19919;SDS011;10122;50.074;19.920;2022-09-09T01:53:58;7.00;;;5.57;;
19919;SDS011;10122;50.074;19.920;2022-09-09T01:59:35;8.07;;;5.70;;
19919;SDS011;10122;50.074;19.920;2022-09-09T02:02:19;7.35;;;5.63;;
19919;SDS011;10122;50.074;19.920;2022-09-09T02:04:55;7.32;;;6.22;;
19919;SDS011;10122;50.074;19.920;2022-09-09T02:07:38;8.90;;;5.97;;
19919;SDS011;10122;50.074;19.920;2022-09-09T02:10:09;7.65;;;5.82;;
19919;SDS011;10122;50.074;19.920;2022-09-09T02:12:38;8.45;;;5.70;;
19919;SDS011;10122;50.074;19.920;2022-09-09T02:15:52;8.18;;;5.43;;
19919;SDS011;10122;50.074;19.920;2022-09-09T02:18:06;8.50;;;5.30;;
19919;SDS011;10122;50.074;19.920;2022-09-09T02:20:34;8.00;;;5.40;;
19919;SDS011;10122;50.074;19.920;2022-09-09T02:23:02;6.38;;;5.28;;
19919;SDS011;10122;50.074;19.920;2022-09-09T02:25:32;7.40;;;5.70;;
19919;SDS011;10122;50.074;19.920;2022-09-09T02:28:00;6.65;;;5.18;;
19919;SDS011;10122;50.074;19.920;2022-09-09T02:30:29;7.32;;;5.55;;
19919;SDS011;10122;50.074;19.920;2022-09-09T02:32:59;6.63;;;5.10;;
19919;SDS011;10122;50.074;19.920;2022-09-09T02:35:28;8.85;;;5.60;;
19919;SDS011;10122;50.074;19.920;2022-09-09T02:37:56;5.78;;;4.82;;
19919;SDS011;10122;50.074;19.920;2022-09-09T02:40:24;6.30;;;5.18;;
19919;SDS011;10122;50.074;19.920;2022-09-09T02:42:50;6.50;;;5.35;;
19919;SDS011;10122;50.074;19.920;2022-09-09T02:45:19;7.40;;;5.50;;
19919;SDS011;10122;50.074;19.920;2022-09-09T02:47:51;6.70;;;5.35;;
19919;SDS011;10122;50.074;19.920;2022-09-09T02:50:35;7.75;;;5.15;;
19919;SDS011;10122;50.074;19.920;2022-09-09T02:58:12;6.57;;;5.43;;
19919;SDS011;10122;50.074;19.920;2022-09-09T03:00:42;7.90;;;5.07;;
19919;SDS011;10122;50.074;19.920;2022-09-09T03:03:11;8.38;;;6.22;;
19919;SDS011;10122;50.074;19.920;2022-09-09T03:05:36;7.20;;;5.68;;
19919;SDS011;10122;50.074;19.920;2022-09-09T03:08:03;8.35;;;5.63;;
19919;SDS011;10122;50.074;19.920;2022-09-09T03:10:30;6.82;;;5.43;;
19919;SDS011;10122;50.074;19.920;2022-09-09T03:12:57;6.18;;;5.25;;
19919;SDS011;10122;50.074;19.920;2022-09-09T03:15:22;6.65;;;5.35;;
19919;SDS011;10122;50.074;19.920;2022-09-09T03:17:48;7.50;;;5.55;;
19919;SDS011;10122;50.074;19.920;2022-09-09T03:20:14;8.48;;;5.80;;
19919;SDS011;10122;50.074;19.920;2022-09-09T03:22:39;6.82;;;5.45;;
19919;SDS011;10122;50.074;19.920;2022-09-09T03:25:05;8.00;;;6.22;;
19919;SDS011;10122;50.074;19.920;2022-09-09T03:27:31;8.98;;;5.47;;
19919;SDS011;10122;50.074;19.920;2022-09-09T03:29:57;7.13;;;5.63;;
19919;SDS011;10122;50.074;19.920;2022-09-09T03:32:23;6.35;;;5.57;;
19919;SDS011;10122;50.074;19.920;2022-09-09T03:34:51;7.90;;;5.93;;
19919;SDS011;10122;50.074;19.920;2022-09-09T03:37:17;8.00;;;5.85;;
19919;SDS011;10122;50.074;19.920;2022-09-09T03:39:46;6.63;;;5.70;;
19919;SDS011;10122;50.074;19.920;2022-09-09T03:42:12;7.40;;;5.85;;
19919;SDS011;10122;50.074;19.920;2022-09-09T03:44:39;6.75;;;5.90;;
19919;SDS011;10122;50.074;19.920;2022-09-09T03:47:06;9.00;;;5.93;;
19919;SDS011;10122;50.074;19.920;2022-09-09T03:49:32;8.68;;;6.32;;
19919;SDS011;10122;50.074;19.920;2022-09-09T03:51:58;9.07;;;6.22;;
19919;SDS011;10122;50.074;19.920;2022-09-09T03:54:24;7.93;;;5.95;;
19919;SDS011;10122;50.074;19.920;2022-09-09T03:56:50;8.48;;;6.32;;
19919;SDS011;10122;50.074;19.920;2022-09-09T03:59:16;7.57;;;6.43;;
19919;SDS011;10122;50.074;19.920;2022-09-09T04:01:41;9.05;;;6.97;;
19919;SDS011;10122;50.074;19.920;2022-09-09T04:04:07;9.70;;;6.28;;
19919;SDS011;10122;50.074;19.920;2022-09-09T04:06:34;8.20;;;6.88;;
19919;SDS011;10122;50.074;19.920;2022-09-09T04:09:00;10.98;;;6.38;;
19919;SDS011;10122;50.074;19.920;2022-09-09T04:11:28;10.20;;;6.35;;
19919;SDS011;10122;50.074;19.920;2022-09-09T04:13:54;8.43;;;6.38;;
19919;SDS011;10122;50.074;19.920;2022-09-09T04:16:19;7.90;;;6.07;;
19919;SDS011;10122;50.074;19.920;2022-09-09T04:18:45;7.13;;;5.68;;
19919;SDS011;10122;50.074;19.920;2022-09-09T04:21:11;7.25;;;5.43;;
19919;SDS011;10122;50.074;19.920;2022-09-09T04:23:37;6.22;;;4.90;;
19919;SDS011;10122;50.074;19.920;2022-09-09T04:26:04;7.13;;;5.47;;
19919;SDS011;10122;50.074;19.920;2022-09-09T04:28:31;8.63;;;5.57;;
19919;SDS011;10122;50.074;19.920;2022-09-09T04:31:09;6.05;;;4.63;;
19919;SDS011;10122;50.074;19.920;2022-09-09T04:33:40;6.68;;;5.00;;
19919;SDS011;10122;50.074;19.920;2022-09-09T04:36:06;6.95;;;4.97;;
19919;SDS011;10122;50.074;19.920;2022-09-09T04:38:32;7.30;;;4.70;;
19919;SDS011;10122;50.074;19.920;2022-09-09T04:40:57;6.88;;;4.93;;
19919;SDS011;10122;50.074;19.920;2022-09-09T04:43:23;7.13;;;4.40;;
19919;SDS011;10122;50.074;19.920;2022-09-09T04:45:50;6.78;;;4.60;;
19919;SDS011;10122;50.074;19.920;2022-09-09T04:48:16;6.55;;;4.50;;
19919;SDS011;10122;50.074;19.920;2022-09-09T04:50:42;6.30;;;4.70;;
19919;SDS011;10122;50.074;19.920;2022-09-09T04:53:08;7.97;;;4.88;;
19919;SDS011;10122;50.074;19.920;2022-09-09T04:55:34;7.70;;;4.88;;
19919;SDS011;10122;50.074;19.920;2022-09-09T04:58:07;9.07;;;4.90;;
19919;SDS011;10122;50.074;19.920;2022-09-09T05:00:36;7.65;;;4.90;;
19919;SDS011;10122;50.074;19.920;2022-09-09T05:03:03;7.00;;;5.20;;
19919;SDS011;10122;50.074;19.920;2022-09-09T05:05:30;6.82;;;4.70;;
19919;SDS011;10122;50.074;19.920;2022-09-09T05:08:00;7.68;;;4.53;;
19919;SDS011;10122;50.074;19.920;2022-09-09T05:10:30;8.75;;;4.45;;
19919;SDS011;10122;50.074;19.920;2022-09-09T05:12:57;8.27;;;4.93;;
19919;SDS011;10122;50.074;19.920;2022-09-09T05:15:22;7.35;;;4.90;;
19919;SDS011;10122;50.074;19.920;2022-09-09T05:17:48;7.63;;;4.82;;
19919;SDS011;10122;50.074;19.920;2022-09-09T05:20:14;8.05;;;4.82;;
19919;SDS011;10122;50.074;19.920;2022-09-09T05:22:40;5.75;;;4.65;;
19919;SDS011;10122;50.074;19.920;2022-09-09T05:25:06;8.07;;;4.78;;
19919;SDS011;10122;50.074;19.920;2022-09-09T05:27:33;8.25;;;5.35;;
19919;SDS011;10122;50.074;19.920;2022-09-09T05:29:59;6.90;;;5.22;;
19919;SDS011;10122;50.074;19.920;2022-09-09T05:32:25;6.70;;;5.28;;
19919;SDS011;10122;50.074;19.920;2022-09-09T05:34:51;7.72;;;5.68;;
19919;SDS011;10122;50.074;19.920;2022-09-09T05:37:17;7.75;;;5.18;;
19919;SDS011;10122;50.074;19.920;2022-09-09T05:39:43;9.35;;;5.90;;
19919;SDS011;10122;50.074;19.920;2022-09-09T05:42:09;8.07;;;5.85;;
19919;SDS011;10122;50.074;19.920;2022-09-09T05:44:34;8.93;;;5.55;;
19919;SDS011;10122;50.074;19.920;2022-09-09T05:47:00;7.05;;;5.10;;
19919;SDS011;10122;50.074;19.920;2022-09-09T05:49:26;6.18;;;4.70;;
19919;SDS011;10122;50.074;19.920;2022-09-09T05:51:52;8.73;;;5.25;;
19919;SDS011;10122;50.074;19.920;2022-09-09T05:54:18;10.23;;;5.15;;
19919;SDS011;10122;50.074;19.920;2022-09-09T05:56:43;7.38;;;5.00;;
19919;SDS011;10122;50.074;19.920;2022-09-09T05:59:09;7.57;;;5.53;;
19919;SDS011;10122;50.074;19.920;2022-09-09T06:01:36;8.90;;;5.88;;
19919;SDS011;10122;50.074;19.920;2022-09-09T06:04:05;8.60;;;5.82;;
19919;SDS011;10122;50.074;19.920;2022-09-09T06:06:33;7.55;;;5.90;;
19919;SDS011;10122;50.074;19.920;2022-09-09T06:09:01;7.30;;;5.78;;
19919;SDS011;10122;50.074;19.920;2022-09-09T06:11:29;8.38;;;5.70;;
19919;SDS011;10122;50.074;19.920;2022-09-09T06:13:56;7.00;;;5.68;;
19919;SDS011;10122;50.074;19.920;2022-09-09T06:16:23;8.85;;;5.55;;
19919;SDS011;10122;50.074;19.920;2022-09-09T06:18:51;7.97;;;6.03;;
19919;SDS011;10122;50.074;19.920;2022-09-09T06:21:28;8.95;;;5.45;;
19919;SDS011;10122;50.074;19.920;2022-09-09T06:23:59;7.78;;;5.60;;
19919;SDS011;10122;50.074;19.920;2022-09-09T06:26:25;6.70;;;5.80;;
19919;SDS011;10122;50.074;19.920;2022-09-09T06:28:53;7.72;;;6.07;;
19919;SDS011;10122;50.074;19.920;2022-09-09T06:31:21;7.07;;;5.28;;
19919;SDS011;10122;50.074;19.920;2022-09-09T06:33:52;5.65;;;4.68;;
19919;SDS011;10122;50.074;19.920;2022-09-09T06:36:20;4.97;;;4.35;;
19919;SDS011;10122;50.074;19.920;2022-09-09T06:38:47;5.22;;;4.45;;
19919;SDS011;10122;50.074;19.920;2022-09-09T06:41:13;5.80;;;4.18;;
19919;SDS011;10122;50.074;19.920;2022-09-09T06:43:41;6.35;;;4.70;;
19919;SDS011;10122;50.074;19.920;2022-09-09T06:46:14;5.90;;;4.13;;
19919;SDS011;10122;50.074;19.920;2022-09-09T06:48:41;4.40;;;3.78;;
19919;SDS011;10122;50.074;19.920;2022-09-09T06:51:22;5.68;;;3.90;;
19919;SDS011;10122;50.074;19.920;2022-09-09T06:53:56;5.35;;;4.05;;
19919;SDS011;10122;50.074;19.920;2022-09-09T06:56:30;5.68;;;4.63;;
19919;SDS011;10122;50.074;19.920;2022-09-09T06:58:59;5.13;;;4.13;;
19919;SDS011;10122;50.074;19.920;2022-09-09T07:01:29;6.13;;;4.05;;
19919;SDS011;10122;50.074;19.920;2022-09-09T07:03:57;5.22;;;3.92;;
19919;SDS011;10122;50.074;19.920;2022-09-09T07:06:30;6.13;;;4.22;;
19919;SDS011;10122;50.074;19.920;2022-09-09T07:08:58;4.43;;;3.65;;
19919;SDS011;10122;50.074;19.920;2022-09-09T07:11:26;6.82;;;3.70;;
19919;SDS011;10122;50.074;19.920;2022-09-09T07:13:53;6.93;;;3.83;;
19919;SDS011;10122;50.074;19.920;2022-09-09T07:16:20;6.28;;;3.97;;
19919;SDS011;10122;50.074;19.920;2022-09-09T07:18:49;6.60;;;4.32;;
19919;SDS011;10122;50.074;19.920;2022-09-09T07:21:15;8.20;;;4.00;;
19919;SDS011;10122;50.074;19.920;2022-09-09T07:23:41;7.18;;;3.55;;
19919;SDS011;10122;50.074;19.920;2022-09-09T07:26:14;5.95;;;3.78;;
19919;SDS011;10122;50.074;19.920;2022-09-09T07:28:42;8.85;;;4.03;;
19919;SDS011;10122;50.074;19.920;2022-09-09T07:31:18;7.20;;;3.60;;
19919;SDS011;10122;50.074;19.920;2022-09-09T07:33:46;5.70;;;3.70;;
19919;SDS011;10122;50.074;19.920;2022-09-09T07:36:23;4.07;;;3.60;;
19919;SDS011;10122;50.074;19.920;2022-09-09T07:38:54;4.60;;;3.00;;
19919;SDS011;10122;50.074;19.920;2022-09-09T07:43:49;5.05;;;3.35;;
19919;SDS011;10122;50.074;19.920;2022-09-09T07:46:16;3.72;;;3.33;;
19919;SDS011;10122;50.074;19.920;2022-09-09T07:48:51;4.05;;;3.53;;
19919;SDS011;10122;50.074;19.920;2022-09-09T07:51:19;5.25;;;3.33;;
19919;SDS011;10122;50.074;19.920;2022-09-09T07:53:48;4.15;;;2.97;;
19919;SDS011;10122;50.074;19.920;2022-09-09T07:56:17;4.43;;;3.10;;
19919;SDS011;10122;50.074;19.920;2022-09-09T07:58:46;5.32;;;2.90;;
19919;SDS011;10122;50.074;19.920;2022-09-09T08:01:16;5.50;;;3.20;;
19919;SDS011;10122;50.074;19.920;2022-09-09T08:03:52;3.63;;;3.05;;
19919;SDS011;10122;50.074;19.920;2022-09-09T08:06:24;4.25;;;3.20;;
19919;SDS011;10122;50.074;19.920;2022-09-09T08:08:51;4.25;;;3.10;;
19919;SDS011;10122;50.074;19.920;2022-09-09T08:11:18;5.80;;;3.17;;
19919;SDS011;10122;50.074;19.920;2022-09-09T08:13:44;3.33;;;2.90;;
19919;SDS011;10122;50.074;19.920;2022-09-09T08:16:13;4.00;;;2.97;;
19919;SDS011;10122;50.074;19.920;2022-09-09T08:18:40;3.05;;;2.58;;
19919;SDS011;10122;50.074;19.920;2022-09-09T08:21:07;4.18;;;2.88;;
19919;SDS011;10122;50.074;19.920;2022-09-09T08:23:40;3.95;;;2.78;;
19919;SDS011;10122;50.074;19.920;2022-09-09T08:26:09;5.18;;;2.67;;
19919;SDS011;10122;50.074;19.920;2022-09-09T08:28:40;3.30;;;2.50;;
19919;SDS011;10122;50.074;19.920;2022-09-09T08:31:07;3.47;;;2.60;;
19919;SDS011;10122;50.074;19.920;2022-09-09T08:33:35;3.90;;;2.50;;
19919;SDS011;10122;50.074;19.920;2022-09-09T08:36:03;3.08;;;2.58;;
19919;SDS011;10122;50.074;19.920;2022-09-09T08:38:31;3.75;;;2.40;;
19919;SDS011;10122;50.074;19.920;2022-09-09T08:41:12;2.60;;;2.40;;
19919;SDS011;10122;50.074;19.920;2022-09-09T08:44:04;2.67;;;2.30;;
19919;SDS011;10122;50.074;19.920;2022-09-09T08:49:23;3.75;;;2.50;;
19919;SDS011;10122;50.074;19.920;2022-09-09T08:51:59;2.78;;;2.58;;
19919;SDS011;10122;50.074;19.920;2022-09-09T08:54:26;3.55;;;2.40;;
19919;SDS011;10122;50.074;19.920;2022-09-09T08:57:01;2.70;;;2.50;;
19919;SDS011;10122;50.074;19.920;2022-09-09T08:59:26;3.45;;;2.80;;
19919;SDS011;10122;50.074;19.920;2022-09-09T09:01:58;3.33;;;2.40;;
19919;SDS011;10122;50.074;19.920;2022-09-09T09:10:26;2.63;;;2.42;;
19919;SDS011;10122;50.074;19.920;2022-09-09T09:13:15;4.85;;;2.97;;
19919;SDS011;10122;50.074;19.920;2022-09-09T09:15:52;5.10;;;2.92;;
19919;SDS011;10122;50.074;19.920;2022-09-09T09:18:22;3.40;;;2.40;;
19919;SDS011;10122;50.074;19.920;2022-09-09T09:20:50;3.17;;;2.40;;
19919;SDS011;10122;50.074;19.920;2022-09-09T09:23:33;3.03;;;2.28;;
19919;SDS011;10122;50.074;19.920;2022-09-09T09:26:18;4.18;;;2.50;;
19919;SDS011;10122;50.074;19.920;2022-09-09T09:28:47;5.15;;;2.40;;
19919;SDS011;10122;50.074;19.920;2022-09-09T09:31:12;2.40;;;2.20;;
19919;SDS011;10122;50.074;19.920;2022-09-09T09:33:46;4.85;;;2.45;;
19919;SDS011;10122;50.074;19.920;2022-09-09T09:36:18;2.80;;;2.50;;
19919;SDS011;10122;50.074;19.920;2022-09-09T09:38:53;3.08;;;2.42;;
19919;SDS011;10122;50.074;19.920;2022-09-09T09:44:01;4.63;;;2.50;;
19919;SDS011;10122;50.074;19.920;2022-09-09T09:46:27;4.60;;;2.35;;
19919;SDS011;10122;50.074;19.920;2022-09-09T09:49:00;3.28;;;2.00;;
19919;SDS011;10122;50.074;19.920;2022-09-09T09:51:28;2.80;;;2.20;;
19919;SDS011;10122;50.074;19.920;2022-09-09T09:54:18;2.63;;;2.00;;
19919;SDS011;10122;50.074;19.920;2022-09-09T09:57:09;4.95;;;2.38;;
19919;SDS011;10122;50.074;19.920;2022-09-09T09:59:36;4.93;;;2.00;;
19919;SDS011;10122;50.074;19.920;2022-09-09T10:04:59;2.30;;;2.00;;
19919;SDS011;10122;50.074;19.920;2022-09-09T10:07:26;2.28;;;2.08;;
19919;SDS011;10122;50.074;19.920;2022-09-09T10:09:53;3.00;;;2.20;;
19919;SDS011;10122;50.074;19.920;2022-09-09T10:18:06;2.55;;;2.35;;
19919;SDS011;10122;50.074;19.920;2022-09-09T10:37:19;3.00;;;2.30;;
19919;SDS011;10122;50.074;19.920;2022-09-09T10:39:47;2.80;;;2.30;;
19919;SDS011;10122;50.074;19.920;2022-09-09T10:42:18;2.40;;;2.20;;
19919;SDS011;10122;50.074;19.920;2022-09-09T10:47:44;3.40;;;1.85;;
19919;SDS011;10122;50.074;19.920;2022-09-09T10:50:24;2.88;;;2.10;;
19919;SDS011;10122;50.074;19.920;2022-09-09T10:56:01;2.30;;;1.85;;
19919;SDS011;10122;50.074;19.920;2022-09-09T10:58:35;3.45;;;1.90;;
19919;SDS011;10122;50.074;19.920;2022-09-09T11:01:32;2.53;;;1.90;;
19919;SDS011;10122;50.074;19.920;2022-09-09T11:04:17;2.47;;;2.17;;
19919;SDS011;10122;50.074;19.920;2022-09-09T11:06:57;2.30;;;2.10;;
19919;SDS011;10122;50.074;19.920;2022-09-09T11:09:30;4.88;;;2.00;;
19919;SDS011;10122;50.074;19.920;2022-09-09T11:12:01;2.28;;;2.00;;
19919;SDS011;10122;50.074;19.920;2022-09-09T11:14:43;2.28;;;1.90;;
19919;SDS011;10122;50.074;19.920;2022-09-09T11:19:58;2.45;;;2.00;;
19919;SDS011;10122;50.074;19.920;2022-09-09T11:22:30;2.88;;;2.00;;
19919;SDS011;10122;50.074;19.920;2022-09-09T11:25:01;3.47;;;2.10;;
19919;SDS011;10122;50.074;19.920;2022-09-09T11:30:24;2.20;;;2.00;;
19919;SDS011;10122;50.074;19.920;2022-09-09T11:38:45;2.38;;;1.92;;
19919;SDS011;10122;50.074;19.920;2022-09-09T11:41:12;3.40;;;2.10;;
19919;SDS011;10122;50.074;19.920;2022-09-09T11:46:08;2.63;;;1.90;;
19919;SDS011;10122;50.074;19.920;2022-09-09T11:51:25;1.90;;;1.70;;
19919;SDS011;10122;50.074;19.920;2022-09-09T11:56:28;2.00;;;1.70;;
19919;SDS011;10122;50.074;19.920;2022-09-09T11:58:56;2.22;;;1.80;;
19919;SDS011;10122;50.074;19.920;2022-09-09T12:01:34;3.10;;;2.08;;
19919;SDS011;10122;50.074;19.920;2022-09-09T12:04:14;2.78;;;1.90;;
19919;SDS011;10122;50.074;19.920;2022-09-09T12:06:52;1.88;;;1.63;;
19919;SDS011;10122;50.074;19.920;2022-09-09T12:12:06;1.70;;;1.60;;
19919;SDS011;10122;50.074;19.920;2022-09-09T12:17:43;2.00;;;1.80;;
19919;SDS011;10122;50.074;19.920;2022-09-09T12:20:18;2.63;;;1.90;;
19919;SDS011;10122;50.074;19.920;2022-09-09T12:23:17;2.25;;;1.58;;
19919;SDS011;10122;50.074;19.920;2022-09-09T12:31:17;2.03;;;1.80;;
19919;SDS011;10122;50.074;19.920;2022-09-09T12:34:28;1.70;;;1.60;;
19919;SDS011;10122;50.074;19.920;2022-09-09T12:39:49;2.00;;;1.80;;
19919;SDS011;10122;50.074;19.920;2022-09-09T12:42:23;4.45;;;1.90;;
19919;SDS011;10122;50.074;19.920;2022-09-09T12:47:25;2.10;;;1.80;;
19919;SDS011;10122;50.074;19.920;2022-09-09T12:50:16;2.45;;;1.90;;
19919;SDS011;10122;50.074;19.920;2022-09-09T12:52:46;2.10;;;1.90;;
19919;SDS011;10122;50.074;19.920;2022-09-09T12:55:20;2.10;;;1.90;;
19919;SDS011;10122;50.074;19.920;2022-09-09T12:57:50;1.85;;;1.75;;
19919;SDS011;10122;50.074;19.920;2022-09-09T13:05:20;2.22;;;1.88;;
19919;SDS011;10122;50.074;19.920;2022-09-09T13:07:47;2.00;;;1.80;;
19919;SDS011;10122;50.074;19.920;2022-09-09T13:10:14;2.17;;;1.95;;
19919;SDS011;10122;50.074;19.920;2022-09-09T13:12:45;1.83;;;1.70;;
19919;SDS011;10122;50.074;19.920;2022-09-09T13:15:13;1.70;;;1.60;;
19919;SDS011;10122;50.074;19.920;2022-09-09T13:17:58;2.40;;;1.90;;
19919;SDS011;10122;50.074;19.920;2022-09-09T13:20:29;2.65;;;1.80;;
19919;SDS011;10122;50.074;19.920;2022-09-09T13:22:56;2.80;;;1.90;;
19919;SDS011;10122;50.074;19.920;2022-09-09T13:35:29;2.22;;;1.80;;
19919;SDS011;10122;50.074;19.920;2022-09-09T13:37:56;2.72;;;1.90;;
19919;SDS011;10122;50.074;19.920;2022-09-09T13:40:23;1.73;;;1.63;;
19919;SDS011;10122;50.074;19.920;2022-09-09T13:42:53;2.00;;;1.80;;
19919;SDS011;10122;50.074;19.920;2022-09-09T13:45:22;2.25;;;1.80;;
19919;SDS011;10122;50.074;19.920;2022-09-09T13:47:51;2.20;;;1.92;;
19919;SDS011;10122;50.074;19.920;2022-09-09T13:50:29;1.95;;;1.80;;
19919;SDS011;10122;50.074;19.920;2022-09-09T13:52:56;2.20;;;1.80;;
19919;SDS011;10122;50.074;19.920;2022-09-09T13:55:24;1.90;;;1.80;;
19919;SDS011;10122;50.074;19.920;2022-09-09T13:57:55;2.08;;;1.90;;
19919;SDS011;10122;50.074;19.920;2022-09-09T14:00:23;1.83;;;1.63;;
19919;SDS011;10122;50.074;19.920;2022-09-09T14:02:49;1.85;;;1.75;;
19919;SDS011;10122;50.074;19.920;2022-09-09T14:05:16;2.25;;;1.92;;
19919;SDS011;10122;50.074;19.920;2022-09-09T14:07:43;2.15;;;1.90;;
19919;SDS011;10122;50.074;19.920;2022-09-09T14:10:10;2.72;;;2.08;;
19919;SDS011;10122;50.074;19.920;2022-09-09T14:12:36;3.05;;;1.75;;
19919;SDS011;10122;50.074;19.920;2022-09-09T14:15:03;3.85;;;2.15;;
19919;SDS011;10122;50.074;19.920;2022-09-09T14:17:30;1.90;;;1.70;;
19919;SDS011;10122;50.074;19.920;2022-09-09T14:19:56;2.00;;;1.80;;
19919;SDS011;10122;50.074;19.920;2022-09-09T14:22:23;2.15;;;1.70;;
19919;SDS011;10122;50.074;19.920;2022-09-09T14:24:50;2.30;;;1.75;;
19919;SDS011;10122;50.074;19.920;2022-09-09T14:27:16;1.90;;;1.70;;
19919;SDS011;10122;50.074;19.920;2022-09-09T14:29:43;1.90;;;1.70;;
19919;SDS011;10122;50.074;19.920;2022-09-09T14:32:09;2.50;;;1.90;;
19919;SDS011;10122;50.074;19.920;2022-09-09T14:34:35;2.10;;;1.90;;
19919;SDS011;10122;50.074;19.920;2022-09-09T14:37:01;2.35;;;2.00;;
19919;SDS011;10122;50.074;19.920;2022-09-09T14:39:27;2.30;;;1.88;;
19919;SDS011;10122;50.074;19.920;2022-09-09T14:41:53;1.98;;;1.73;;
19919;SDS011;10122;50.074;19.920;2022-09-09T14:44:18;2.88;;;2.10;;
19919;SDS011;10122;50.074;19.920;2022-09-09T14:46:44;2.25;;;2.05;;
19919;SDS011;10122;50.074;19.920;2022-09-09T14:49:10;3.05;;;1.83;;
19919;SDS011;10122;50.074;19.920;2022-09-09T14:51:37;2.13;;;1.90;;
19919;SDS011;10122;50.074;19.920;2022-09-09T14:54:03;3.50;;;1.95;;
19919;SDS011;10122;50.074;19.920;2022-09-09T14:56:31;3.40;;;1.88;;
19919;SDS011;10122;50.074;19.920;2022-09-09T14:58:59;5.05;;;1.90;;
19919;SDS011;10122;50.074;19.920;2022-09-09T15:01:26;3.55;;;1.85;;
19919;SDS011;10122;50.074;19.920;2022-09-09T15:03:53;2.78;;;1.70;;
19919;SDS011;10122;50.074;19.920;2022-09-09T15:06:20;3.13;;;1.90;;
19919;SDS011;10122;50.074;19.920;2022-09-09T15:08:49;2.92;;;1.90;;
19919;SDS011;10122;50.074;19.920;2022-09-09T15:11:17;4.20;;;1.95;;
19919;SDS011;10122;50.074;19.920;2022-09-09T15:13:43;2.45;;;2.00;;
19919;SDS011;10122;50.074;19.920;2022-09-09T15:18:39;2.63;;;2.08;;
19919;SDS011;10122;50.074;19.920;2022-09-09T15:21:11;2.28;;;2.00;;
19919;SDS011;10122;50.074;19.920;2022-09-09T15:23:38;2.55;;;1.80;;
19919;SDS011;10122;50.074;19.920;2022-09-09T15:26:04;2.25;;;1.92;;
19919;SDS011;10122;50.074;19.920;2022-09-09T15:28:33;2.33;;;2.03;;
19919;SDS011;10122;50.074;19.920;2022-09-09T15:31:02;3.67;;;1.92;;
19919;SDS011;10122;50.074;19.920;2022-09-09T15:33:35;2.10;;;1.90;;
19919;SDS011;10122;50.074;19.920;2022-09-09T15:38:51;2.72;;;1.92;;
19919;SDS011;10122;50.074;19.920;2022-09-09T15:41:17;2.40;;;2.13;;
19919;SDS011;10122;50.074;19.920;2022-09-09T15:43:45;2.88;;;2.00;;
19919;SDS011;10122;50.074;19.920;2022-09-09T15:46:31;2.72;;;2.10;;
19919;SDS011;10122;50.074;19.920;2022-09-09T15:51:34;4.18;;;2.13;;
19919;SDS011;10122;50.074;19.920;2022-09-09T15:54:00;3.15;;;1.88;;
19919;SDS011;10122;50.074;19.920;2022-09-09T15:56:26;2.28;;;2.08;;
19919;SDS011;10122;50.074;19.920;2022-09-09T15:58:55;2.95;;;1.80;;
19919;SDS011;10122;50.074;19.920;2022-09-09T16:01:22;3.40;;;1.92;;
19919;SDS011;10122;50.074;19.920;2022-09-09T16:03:48;3.00;;;1.90;;
19919;SDS011;10122;50.074;19.920;2022-09-09T16:06:15;3.00;;;2.00;;
19919;SDS011;10122;50.074;19.920;2022-09-09T16:08:47;2.05;;;1.85;;
19919;SDS011;10122;50.074;19.920;2022-09-09T16:11:27;2.00;;;1.90;;
19919;SDS011;10122;50.074;19.920;2022-09-09T16:13:56;2.35;;;2.00;;
19919;SDS011;10122;50.074;19.920;2022-09-09T16:16:23;2.33;;;2.13;;
19919;SDS011;10122;50.074;19.920;2022-09-09T16:18:52;2.25;;;2.05;;
19919;SDS011;10122;50.074;19.920;2022-09-09T16:21:24;2.38;;;2.15;;
19919;SDS011;10122;50.074;19.920;2022-09-09T16:23:54;4.03;;;2.30;;
19919;SDS011;10122;50.074;19.920;2022-09-09T16:26:21;2.92;;;2.20;;
19919;SDS011;10122;50.074;19.920;2022-09-09T16:28:48;2.97;;;2.20;;
19919;SDS011;10122;50.074;19.920;2022-09-09T16:31:19;4.95;;;2.25;;
19919;SDS011;10122;50.074;19.920;2022-09-09T16:33:46;2.97;;;2.10;;
19919;SDS011;10122;50.074;19.920;2022-09-09T16:36:13;2.45;;;2.25;;
19919;SDS011;10122;50.074;19.920;2022-09-09T16:38:41;2.40;;;2.20;;
19919;SDS011;10122;50.074;19.920;2022-09-09T16:41:08;2.88;;;2.30;;
19919;SDS011;10122;50.074;19.920;2022-09-09T16:43:35;2.10;;;1.90;;
19919;SDS011;10122;50.074;19.920;2022-09-09T16:46:02;2.90;;;2.42;;
19919;SDS011;10122;50.074;19.920;2022-09-09T16:48:36;2.67;;;2.10;;
19919;SDS011;10122;50.074;19.920;2022-09-09T16:51:05;3.63;;;2.60;;
19919;SDS011;10122;50.074;19.920;2022-09-09T16:53:33;3.45;;;2.33;;
19919;SDS011;10122;50.074;19.920;2022-09-09T16:56:08;7.43;;;2.67;;
19919;SDS011;10122;50.074;19.920;2022-09-09T16:58:38;6.60;;;2.78;;
19919;SDS011;10122;50.074;19.920;2022-09-09T17:01:04;4.88;;;2.53;;
19919;SDS011;10122;50.074;19.920;2022-09-09T17:03:31;2.95;;;2.35;;
19919;SDS011;10122;50.074;19.920;2022-09-09T17:05:57;4.50;;;2.40;;
19919;SDS011;10122;50.074;19.920;2022-09-09T17:08:27;3.92;;;2.53;;
19919;SDS011;10122;50.074;19.920;2022-09-09T17:10:54;3.03;;;2.40;;
19919;SDS011;10122;50.074;19.920;2022-09-09T17:13:20;3.10;;;2.67;;
19919;SDS011;10122;50.074;19.920;2022-09-09T17:15:46;5.53;;;2.75;;
19919;SDS011;10122;50.074;19.920;2022-09-09T17:18:12;4.57;;;2.80;;
19919;SDS011;10122;50.074;19.920;2022-09-09T17:20:38;4.38;;;3.00;;
19919;SDS011;10122;50.074;19.920;2022-09-09T17:23:06;3.20;;;2.90;;
19919;SDS011;10122;50.074;19.920;2022-09-09T17:25:32;5.43;;;2.97;;
19919;SDS011;10122;50.074;19.920;2022-09-09T17:27:58;4.40;;;3.13;;